sensor_id;sensor_type;location;lat;lon;timestamp;pressure;altitude;pressure_sealevel;temperature;humidity
42003;BME280;27693;50.506;30.832;2023-06-10T00:00:07;99547.75;;;20.55;54.03
42003;BME280;27693;50.506;30.832;2023-06-10T00:01:17;99543.30;;;20.55;54.07
42003;BME280;27693;50.506;30.832;2023-06-10T00:02:19;99541.62;;;20.54;54.33
42003;BME280;27693;50.506;30.832;2023-06-10T00:03:22;99542.47;;;20.55;54.25
42003;BME280;27693;50.506;30.832;2023-06-10T00:04:27;99536.33;;;20.54;54.06
42003;BME280;27693;50.506;30.832;2023-06-10T00:05:29;99547.88;;;20.53;54.31
42003;BME280;27693;50.506;30.832;2023-06-10T00:06:33;99539.13;;;20.53;54.18
42003;BME280;27693;50.506;30.832;2023-06-10T00:07:38;99543.59;;;20.52;54.19
42003;BME280;27693;50.506;30.832;2023-06-10T00:08:41;99543.59;;;20.52;53.73
42003;BME280;27693;50.506;30.832;2023-06-10T00:09:44;99541.06;;;20.51;54.39
42003;BME280;27693;50.506;30.832;2023-06-10T00:10:48;99542.88;;;20.50;54.53
42003;BME280;27693;50.506;30.832;2023-06-10T00:11:50;99539.27;;;20.51;54.38
42003;BME280;27693;50.506;30.832;2023-06-10T00:12:53;99539.95;;;20.53;54.79
42003;BME280;27693;50.506;30.832;2023-06-10T00:13:55;99537.45;;;20.52;55.15
42003;BME280;27693;50.506;30.832;2023-06-10T00:14:58;99541.91;;;20.51;55.07
42003;BME280;27693;50.506;30.832;2023-06-10T00:16:01;99538.56;;;20.49;55.01
42003;BME280;27693;50.506;30.832;2023-06-10T00:17:06;99540.80;;;20.44;55.18
42003;BME280;27693;50.506;30.832;2023-06-10T00:18:11;99543.44;;;20.44;54.47
42003;BME280;27693;50.506;30.832;2023-06-10T00:19:14;99531.61;;;20.38;55.02
42003;BME280;27693;50.506;30.832;2023-06-10T00:20:17;99538.01;;;20.36;55.23
42003;BME280;27693;50.506;30.832;2023-06-10T00:21:22;99537.30;;;20.34;54.83
42003;BME280;27693;50.506;30.832;2023-06-10T00:22:26;99531.34;;;20.32;55.30
42003;BME280;27693;50.506;30.832;2023-06-10T00:23:30;99538.56;;;20.30;55.65
42003;BME280;27693;50.506;30.832;2023-06-10T00:24:34;99538.82;;;20.26;55.68
42003;BME280;27693;50.506;30.832;2023-06-10T00:25:37;99535.50;;;20.24;54.90
42003;BME280;27693;50.506;30.832;2023-06-10T00:26:41;99534.09;;;20.20;56.04
42003;BME280;27693;50.506;30.832;2023-06-10T00:27:45;99537.84;;;20.18;56.11
42003;BME280;27693;50.506;30.832;2023-06-10T00:28:47;99535.49;;;20.15;55.36
42003;BME280;27693;50.506;30.832;2023-06-10T00:29:50;99534.64;;;20.14;56.06
42003;BME280;27693;50.506;30.832;2023-06-10T00:30:53;99535.75;;;20.11;56.00
42003;BME280;27693;50.506;30.832;2023-06-10T00:31:56;99541.17;;;20.10;55.84
42003;BME280;27693;50.506;30.832;2023-06-10T00:32:59;99531.16;;;20.04;56.53
42003;BME280;27693;50.506;30.832;2023-06-10T00:34:02;99531.67;;;19.98;56.78
42003;BME280;27693;50.506;30.832;2023-06-10T00:35:07;99539.59;;;19.98;56.90
42003;BME280;27693;50.506;30.832;2023-06-10T00:36:10;99531.67;;;19.98;55.83
42003;BME280;27693;50.506;30.832;2023-06-10T00:37:13;99533.50;;;19.97;55.48
42003;BME280;27693;50.506;30.832;2023-06-10T00:38:15;99533.50;;;19.97;56.83
42003;BME280;27693;50.506;30.832;2023-06-10T00:39:18;99529.03;;;19.98;56.61
42003;BME280;27693;50.506;30.832;2023-06-10T00:40:20;99532.67;;;19.97;56.76
42003;BME280;27693;50.506;30.832;2023-06-10T00:41:23;99533.64;;;19.95;56.98
42003;BME280;27693;50.506;30.832;2023-06-10T00:42:26;99537.95;;;19.97;55.96
42003;BME280;27693;50.506;30.832;2023-06-10T00:43:29;99537.95;;;19.97;56.72
42003;BME280;27693;50.506;30.832;2023-06-10T00:44:31;99529.33;;;19.94;56.76
42003;BME280;27693;50.506;30.832;2023-06-10T00:45:34;99534.86;;;19.91;57.59
42003;BME280;27693;50.506;30.832;2023-06-10T00:46:37;99534.04;;;19.91;57.59
42003;BME280;27693;50.506;30.832;2023-06-10T00:47:40;99529.87;;;19.88;56.59
42003;BME280;27693;50.506;30.832;2023-06-10T00:48:43;99530.69;;;19.89;56.96
42003;BME280;27693;50.506;30.832;2023-06-10T00:49:47;99532.66;;;19.87;57.57
42003;BME280;27693;50.506;30.832;2023-06-10T00:50:52;99543.47;;;19.84;57.22
42003;BME280;27693;50.506;30.832;2023-06-10T00:51:54;99530.63;;;19.79;58.16
42003;BME280;27693;50.506;30.832;2023-06-10T00:52:57;99535.31;;;19.66;58.55
42003;BME280;27693;50.506;30.832;2023-06-10T00:54:00;99531.36;;;19.50;59.14
42003;BME280;27693;50.506;30.832;2023-06-10T00:55:05;99533.84;;;19.42;59.42
42003;BME280;27693;50.506;30.832;2023-06-10T00:56:16;99531.59;;;19.37;59.75
42003;BME280;27693;50.506;30.832;2023-06-10T00:57:19;99534.19;;;19.27;60.15
42003;BME280;27693;50.506;30.832;2023-06-10T00:58:23;99536.36;;;19.22;60.33
42003;BME280;27693;50.506;30.832;2023-06-10T00:59:28;99530.79;;;19.15;60.24
42003;BME280;27693;50.506;30.832;2023-06-10T01:00:32;99536.78;;;19.18;60.23
42003;BME280;27693;50.506;30.832;2023-06-10T01:01:36;99538.27;;;19.10;60.81
42003;BME280;27693;50.506;30.832;2023-06-10T01:02:40;99534.77;;;19.10;60.74
42003;BME280;27693;50.506;30.832;2023-06-10T01:03:43;99540.77;;;19.12;60.45
42003;BME280;27693;50.506;30.832;2023-06-10T01:04:48;99543.64;;;19.09;60.68
42003;BME280;27693;50.506;30.832;2023-06-10T01:05:57;99536.72;;;19.08;60.87
42003;BME280;27693;50.506;30.832;2023-06-10T01:07:10;99537.11;;;19.03;61.12
42003;BME280;27693;50.506;30.832;2023-06-10T01:08:19;99531.12;;;19.01;61.36
42003;BME280;27693;50.506;30.832;2023-06-10T01:09:32;99532.93;;;19.01;61.36
42003;BME280;27693;50.506;30.832;2023-06-10T01:10:47;99534.14;;;18.96;61.47
42003;BME280;27693;50.506;30.832;2023-06-10T01:11:55;99541.60;;;18.91;61.37
42003;BME280;27693;50.506;30.832;2023-06-10T01:13:00;99540.98;;;18.88;62.05
42003;BME280;27693;50.506;30.832;2023-06-10T01:14:05;99541.60;;;18.91;61.55
42003;BME280;27693;50.506;30.832;2023-06-10T01:15:09;99534.42;;;18.82;62.29
42003;BME280;27693;50.506;30.832;2023-06-10T01:16:14;99534.42;;;18.82;62.28
42003;BME280;27693;50.506;30.832;2023-06-10T01:17:17;99540.98;;;18.88;61.58
42003;BME280;27693;50.506;30.832;2023-06-10T01:18:20;99541.81;;;18.88;62.06
42003;BME280;27693;50.506;30.832;2023-06-10T01:19:23;99539.17;;;18.88;62.02
42003;BME280;27693;50.506;30.832;2023-06-10T01:20:26;99541.23;;;18.84;62.25
42003;BME280;27693;50.506;30.832;2023-06-10T01:21:29;99544.28;;;18.80;62.46
42003;BME280;27693;50.506;30.832;2023-06-10T01:22:34;99536.41;;;18.68;62.88
42003;BME280;27693;50.506;30.832;2023-06-10T01:23:38;99537.84;;;18.73;62.68
42003;BME280;27693;50.506;30.832;2023-06-10T01:24:41;99538.35;;;18.66;62.88
42003;BME280;27693;50.506;30.832;2023-06-10T01:25:54;99541.47;;;18.60;62.74
42003;BME280;27693;50.506;30.832;2023-06-10T01:27:00;99540.78;;;18.58;63.18
42003;BME280;27693;50.506;30.832;2023-06-10T01:29:36;99537.50;;;18.66;62.68
42003;BME280;27693;50.506;30.832;2023-06-10T01:30:48;99542.19;;;18.62;62.85
42003;BME280;27693;50.506;30.832;2023-06-10T01:32:13;99542.45;;;18.59;63.17
42003;BME280;27693;50.506;30.832;2023-06-10T01:33:14;99542.11;;;18.52;63.39
42003;BME280;27693;50.506;30.832;2023-06-10T01:34:21;99550.14;;;18.51;63.60
42003;BME280;27693;50.506;30.832;2023-06-10T01:35:27;99543.44;;;18.47;63.48
42003;BME280;27693;50.506;30.832;2023-06-10T01:36:32;99544.02;;;18.50;63.42
42003;BME280;27693;50.506;30.832;2023-06-10T01:37:38;99543.78;;;18.54;63.46
42003;BME280;27693;50.506;30.832;2023-06-10T01:38:46;99543.92;;;18.52;63.60
42003;BME280;27693;50.506;30.832;2023-06-10T01:39:50;99545.59;;;18.53;63.42
42003;BME280;27693;50.506;30.832;2023-06-10T01:40:55;99546.80;;;18.49;63.65
42003;BME280;27693;50.506;30.832;2023-06-10T01:41:59;99545.83;;;18.50;63.82
42003;BME280;27693;50.506;30.832;2023-06-10T01:43:02;99542.84;;;18.43;63.88
42003;BME280;27693;50.506;30.832;2023-06-10T01:44:05;99538.75;;;18.50;63.54
42003;BME280;27693;50.506;30.832;2023-06-10T01:45:08;99547.14;;;18.56;63.27
42003;BME280;27693;50.506;30.832;2023-06-10T01:46:11;99546.28;;;18.55;63.25
42003;BME280;27693;50.506;30.832;2023-06-10T01:47:14;99546.87;;;18.59;62.84
42003;BME280;27693;50.506;30.832;2023-06-10T01:48:16;99540.19;;;18.55;63.53
42003;BME280;27693;50.506;30.832;2023-06-10T01:49:19;99545.83;;;18.50;63.49
42003;BME280;27693;50.506;30.832;2023-06-10T01:50:22;99540.70;;;18.48;63.59
42003;BME280;27693;50.506;30.832;2023-06-10T01:51:24;99541.97;;;18.54;63.29
42003;BME280;27693;50.506;30.832;2023-06-10T01:52:27;99540.78;;;18.58;62.92
42003;BME280;27693;50.506;30.832;2023-06-10T01:53:30;99531.64;;;18.62;62.81
42003;BME280;27693;50.506;30.832;2023-06-10T01:54:32;99531.41;;;18.65;62.91
42003;BME280;27693;50.506;30.832;2023-06-10T01:55:37;99536.41;;;18.68;62.66
42003;BME280;27693;50.506;30.832;2023-06-10T01:56:39;99535.31;;;18.71;62.41
42003;BME280;27693;50.506;30.832;2023-06-10T01:57:41;99533.16;;;18.76;62.12
42003;BME280;27693;50.506;30.832;2023-06-10T01:58:44;99534.69;;;18.79;61.93
42003;BME280;27693;50.506;30.832;2023-06-10T01:59:47;99535.14;;;18.84;61.73
42003;BME280;27693;50.506;30.832;2023-06-10T02:00:50;99529.63;;;18.87;61.66
42003;BME280;27693;50.506;30.832;2023-06-10T02:01:52;99540.17;;;18.87;61.65
42003;BME280;27693;50.506;30.832;2023-06-10T02:02:55;99532.95;;;18.89;61.72
42003;BME280;27693;50.506;30.832;2023-06-10T02:03:57;99538.49;;;18.86;61.86
42003;BME280;27693;50.506;30.832;2023-06-10T02:05:00;99537.77;;;18.84;61.47
42003;BME280;27693;50.506;30.832;2023-06-10T02:06:03;99540.66;;;18.81;62.13
42003;BME280;27693;50.506;30.832;2023-06-10T02:07:05;99537.33;;;18.79;61.99
42003;BME280;27693;50.506;30.832;2023-06-10T02:08:08;99541.67;;;18.68;62.70
42003;BME280;27693;50.506;30.832;2023-06-10T02:09:10;99545.54;;;18.64;62.77
42003;BME280;27693;50.506;30.832;2023-06-10T02:10:13;99543.86;;;18.63;62.96
42003;BME280;27693;50.506;30.832;2023-06-10T02:11:16;99539.55;;;18.62;62.95
42003;BME280;27693;50.506;30.832;2023-06-10T02:12:19;99544.09;;;18.60;63.17
42003;BME280;27693;50.506;30.832;2023-06-10T02:13:21;99539.41;;;18.64;62.47
42003;BME280;27693;50.506;30.832;2023-06-10T02:14:25;99545.54;;;18.64;62.77
42003;BME280;27693;50.506;30.832;2023-06-10T02:15:27;99546.36;;;18.65;62.92
42003;BME280;27693;50.506;30.832;2023-06-10T02:16:30;99546.87;;;18.59;63.10
42003;BME280;27693;50.506;30.832;2023-06-10T02:17:34;99542.45;;;18.59;62.92
42003;BME280;27693;50.506;30.832;2023-06-10T02:18:36;99543.55;;;18.57;63.14
42003;BME280;27693;50.506;30.832;2023-06-10T02:19:39;99538.01;;;18.60;62.74
42003;BME280;27693;50.506;30.832;2023-06-10T02:20:43;99539.69;;;18.61;62.94
42003;BME280;27693;50.506;30.832;2023-06-10T02:21:45;99545.54;;;18.64;62.74
42003;BME280;27693;50.506;30.832;2023-06-10T02:22:48;99535.72;;;18.66;62.41
42003;BME280;27693;50.506;30.832;2023-06-10T02:23:50;99543.35;;;18.70;62.44
42003;BME280;27693;50.506;30.832;2023-06-10T02:24:53;99539.76;;;18.71;61.90
42003;BME280;27693;50.506;30.832;2023-06-10T02:25:55;99543.11;;;18.73;61.80
42003;BME280;27693;50.506;30.832;2023-06-10T02:26:57;99538.29;;;18.78;61.86
42003;BME280;27693;50.506;30.832;2023-06-10T02:28:01;99533.02;;;18.78;61.68
42003;BME280;27693;50.506;30.832;2023-06-10T02:29:05;99533.02;;;18.78;61.68
42003;BME280;27693;50.506;30.832;2023-06-10T02:30:09;99549.86;;;18.87;61.60
42003;BME280;27693;50.506;30.832;2023-06-10T02:31:13;99549.99;;;18.85;61.47
42003;BME280;27693;50.506;30.832;2023-06-10T02:32:15;99552.63;;;18.85;61.60
42003;BME280;27693;50.506;30.832;2023-06-10T02:33:19;99554.99;;;18.88;61.39
42003;BME280;27693;50.506;30.832;2023-06-10T02:34:22;99555.98;;;18.87;61.54
42003;BME280;27693;50.506;30.832;2023-06-10T02:35:24;99552.36;;;18.88;61.65
42003;BME280;27693;50.506;30.832;2023-06-10T02:36:27;99546.88;;;18.91;60.73
42003;BME280;27693;50.506;30.832;2023-06-10T02:37:29;99552.97;;;18.92;61.53
42003;BME280;27693;50.506;30.832;2023-06-10T02:38:33;99556.45;;;18.92;61.27
42003;BME280;27693;50.506;30.832;2023-06-10T02:39:35;99552.25;;;18.90;60.70
42003;BME280;27693;50.506;30.832;2023-06-10T02:40:41;99552.25;;;18.90;60.70
42003;BME280;27693;50.506;30.832;2023-06-10T02:41:45;99560.50;;;18.96;60.96
42003;BME280;27693;50.506;30.832;2023-06-10T02:42:48;99554.98;;;18.99;60.77
42003;BME280;27693;50.506;30.832;2023-06-10T02:43:51;99561.93;;;19.01;60.99
42003;BME280;27693;50.506;30.832;2023-06-10T02:44:54;99561.93;;;19.01;60.93
42003;BME280;27693;50.506;30.832;2023-06-10T02:45:58;99554.98;;;18.99;60.93
42003;BME280;27693;50.506;30.832;2023-06-10T02:47:01;99556.66;;;19.01;60.86
42003;BME280;27693;50.506;30.832;2023-06-10T02:48:03;99559.81;;;18.94;61.30
42003;BME280;27693;50.506;30.832;2023-06-10T02:49:07;99561.59;;;18.94;61.56
42003;BME280;27693;50.506;30.832;2023-06-10T02:50:10;99563.61;;;18.90;61.59
42003;BME280;27693;50.506;30.832;2023-06-10T02:51:15;99563.41;;;18.82;61.90
42003;BME280;27693;50.506;30.832;2023-06-10T02:52:20;99567.00;;;18.81;61.86
42003;BME280;27693;50.506;30.832;2023-06-10T02:53:22;99562.52;;;18.72;62.17
42003;BME280;27693;50.506;30.832;2023-06-10T02:54:27;99567.78;;;18.72;62.18
42003;BME280;27693;50.506;30.832;2023-06-10T02:55:30;99565.77;;;18.64;62.97
42003;BME280;27693;50.506;30.832;2023-06-10T02:56:34;99571.22;;;18.51;63.45
42003;BME280;27693;50.506;30.832;2023-06-10T02:57:39;99576.22;;;18.54;63.30
42003;BME280;27693;50.506;30.832;2023-06-10T02:58:42;99574.58;;;18.53;63.46
42003;BME280;27693;50.506;30.832;2023-06-10T02:59:45;99576.72;;;18.48;63.58
42003;BME280;27693;50.506;30.832;2023-06-10T03:00:48;99575.31;;;18.44;63.68
42003;BME280;27693;50.506;30.832;2023-06-10T03:01:50;99579.48;;;18.46;63.83
42003;BME280;27693;50.506;30.832;2023-06-10T03:02:53;99573.13;;;18.49;63.61
42003;BME280;27693;50.506;30.832;2023-06-10T03:03:58;99580.90;;;18.50;63.59
42003;BME280;27693;50.506;30.832;2023-06-10T03:05:04;99575.05;;;18.47;64.05
42003;BME280;27693;50.506;30.832;2023-06-10T03:06:10;99576.63;;;18.49;63.89
42003;BME280;27693;50.506;30.832;2023-06-10T03:07:13;99582.26;;;18.45;63.69
42003;BME280;27693;50.506;30.832;2023-06-10T03:08:16;99575.63;;;18.50;63.28
42003;BME280;27693;50.506;30.832;2023-06-10T03:09:18;99575.53;;;18.52;63.25
42003;BME280;27693;50.506;30.832;2023-06-10T03:10:22;99578.08;;;18.42;64.00
42003;BME280;27693;50.506;30.832;2023-06-10T03:11:25;99579.36;;;18.48;63.42
42003;BME280;27693;50.506;30.832;2023-06-10T03:12:28;99581.48;;;18.54;63.07
42003;BME280;27693;50.506;30.832;2023-06-10T03:13:31;99573.80;;;18.62;62.99
42003;BME280;27693;50.506;30.832;2023-06-10T03:14:34;99582.93;;;18.58;63.38
42003;BME280;27693;50.506;30.832;2023-06-10T03:15:37;99580.75;;;18.63;62.87
42003;BME280;27693;50.506;30.832;2023-06-10T03:16:42;99586.76;;;18.54;63.71
42003;BME280;27693;50.506;30.832;2023-06-10T03:17:45;99585.80;;;18.55;63.69
42003;BME280;27693;50.506;30.832;2023-06-10T03:18:49;99580.75;;;18.63;62.90
42003;BME280;27693;50.506;30.832;2023-06-10T03:19:51;99585.27;;;18.73;62.80
42003;BME280;27693;50.506;30.832;2023-06-10T03:20:56;99582.27;;;18.77;62.58
42003;BME280;27693;50.506;30.832;2023-06-10T03:22:11;99579.56;;;18.89;62.48
42003;BME280;27693;50.506;30.832;2023-06-10T03:23:18;99585.18;;;18.95;61.89
42003;BME280;27693;50.506;30.832;2023-06-10T03:24:21;99583.02;;;19.01;61.44
42003;BME280;27693;50.506;30.832;2023-06-10T03:25:23;99574.44;;;18.87;62.48
42003;BME280;27693;50.506;30.832;2023-06-10T03:26:29;99583.53;;;18.94;62.08
42003;BME280;27693;50.506;30.832;2023-06-10T03:27:31;99580.48;;;18.99;62.35
42003;BME280;27693;50.506;30.832;2023-06-10T03:28:36;99580.83;;;19.06;61.80
42003;BME280;27693;50.506;30.832;2023-06-10T03:29:39;99576.13;;;19.09;61.69
42003;BME280;27693;50.506;30.832;2023-06-10T03:30:42;99580.31;;;19.12;61.73
42003;BME280;27693;50.506;30.832;2023-06-10T03:31:45;99583.39;;;19.17;61.15
42003;BME280;27693;50.506;30.832;2023-06-10T03:32:48;99579.55;;;19.21;61.11
42003;BME280;27693;50.506;30.832;2023-06-10T03:33:52;99579.02;;;19.27;60.91
42003;BME280;27693;50.506;30.832;2023-06-10T03:34:55;99572.08;;;19.26;61.20
42003;BME280;27693;50.506;30.832;2023-06-10T03:35:59;99578.69;;;19.21;61.60
42003;BME280;27693;50.506;30.832;2023-06-10T03:37:03;99578.69;;;19.21;61.60
42003;BME280;27693;50.506;30.832;2023-06-10T03:38:06;99578.17;;;19.27;61.52
42003;BME280;27693;50.506;30.832;2023-06-10T03:39:10;99579.98;;;19.26;61.19
42003;BME280;27693;50.506;30.832;2023-06-10T03:40:14;99584.88;;;19.31;60.71
42003;BME280;27693;50.506;30.832;2023-06-10T03:41:18;99581.86;;;19.36;61.41
42003;BME280;27693;50.506;30.832;2023-06-10T03:42:21;99583.78;;;19.34;61.70
42003;BME280;27693;50.506;30.832;2023-06-10T03:43:24;99585.17;;;19.38;61.36
42003;BME280;27693;50.506;30.832;2023-06-10T03:44:27;99582.40;;;19.39;61.43
42003;BME280;27693;50.506;30.832;2023-06-10T03:45:30;99584.93;;;19.41;61.47
42003;BME280;27693;50.506;30.832;2023-06-10T03:46:34;99577.98;;;19.40;62.06
42003;BME280;27693;50.506;30.832;2023-06-10T03:47:37;99588.53;;;19.40;61.93
42003;BME280;27693;50.506;30.832;2023-06-10T03:48:44;99584.93;;;19.41;62.01
42003;BME280;27693;50.506;30.832;2023-06-10T03:49:46;99582.67;;;19.36;62.25
42003;BME280;27693;50.506;30.832;2023-06-10T03:50:49;99583.50;;;19.37;62.18
42003;BME280;27693;50.506;30.832;2023-06-10T03:51:56;99583.50;;;19.37;62.41
42003;BME280;27693;50.506;30.832;2023-06-10T03:53:00;99580.75;;;19.38;62.58
42003;BME280;27693;50.506;30.832;2023-06-10T03:54:03;99583.25;;;19.40;62.71
42003;BME280;27693;50.506;30.832;2023-06-10T03:55:06;99578.55;;;19.43;62.62
42003;BME280;27693;50.506;30.832;2023-06-10T03:56:10;99584.13;;;19.50;62.28
42003;BME280;27693;50.506;30.832;2023-06-10T03:57:13;99580.34;;;19.43;63.30
42003;BME280;27693;50.506;30.832;2023-06-10T03:58:17;99584.41;;;19.47;62.84
42003;BME280;27693;50.506;30.832;2023-06-10T03:59:21;99579.56;;;19.52;62.84
42003;BME280;27693;50.506;30.832;2023-06-10T04:00:24;99579.03;;;19.58;62.63
42003;BME280;27693;50.506;30.832;2023-06-10T04:01:28;99575.86;;;19.64;61.72
42003;BME280;27693;50.506;30.832;2023-06-10T04:02:30;99579.47;;;19.63;62.96
42003;BME280;27693;50.506;30.832;2023-06-10T04:03:34;99579.47;;;19.63;63.05
42003;BME280;27693;50.506;30.832;2023-06-10T04:04:37;99579.92;;;19.69;62.44
42003;BME280;27693;50.506;30.832;2023-06-10T04:05:39;99581.89;;;19.76;62.32
42003;BME280;27693;50.506;30.832;2023-06-10T04:06:42;99573.33;;;19.84;62.63
42003;BME280;27693;50.506;30.832;2023-06-10T04:07:47;99570.58;;;19.86;62.71
42003;BME280;27693;50.506;30.832;2023-06-10T04:08:50;99577.10;;;19.91;61.67
42003;BME280;27693;50.506;30.832;2023-06-10T04:09:52;99574.91;;;19.97;61.94
42003;BME280;27693;50.506;30.832;2023-06-10T04:10:55;99574.63;;;20.00;62.33
42003;BME280;27693;50.506;30.832;2023-06-10T04:11:58;99577.13;;;20.01;62.26
42003;BME280;27693;50.506;30.832;2023-06-10T04:13:01;99578.80;;;20.02;62.25
42003;BME280;27693;50.506;30.832;2023-06-10T04:14:07;99578.27;;;20.08;61.88
42003;BME280;27693;50.506;30.832;2023-06-10T04:15:11;99576.47;;;20.09;62.42
42003;BME280;27693;50.506;30.832;2023-06-10T04:16:15;99577.18;;;20.11;62.08
42003;BME280;27693;50.506;30.832;2023-06-10T04:17:18;99578.56;;;20.15;61.97
42003;BME280;27693;50.506;30.832;2023-06-10T04:18:20;99578.84;;;20.22;62.03
42003;BME280;27693;50.506;30.832;2023-06-10T04:19:28;99575.13;;;20.24;62.29
42003;BME280;27693;50.506;30.832;2023-06-10T04:20:33;99580.12;;;20.27;61.90
42003;BME280;27693;50.506;30.832;2023-06-10T04:21:35;99578.18;;;20.30;61.84
42003;BME280;27693;50.506;30.832;2023-06-10T04:22:38;99573.45;;;20.23;62.38
42003;BME280;27693;50.506;30.832;2023-06-10T04:23:40;99574.13;;;20.25;62.57
42003;BME280;27693;50.506;30.832;2023-06-10T04:24:43;99571.63;;;20.24;62.52
42003;BME280;27693;50.506;30.832;2023-06-10T04:25:46;99574.69;;;20.29;62.11
42003;BME280;27693;50.506;30.832;2023-06-10T04:26:49;99575.80;;;20.26;63.35
42003;BME280;27693;50.506;30.832;2023-06-10T04:27:52;99572.48;;;20.24;63.64
42003;BME280;27693;50.506;30.832;2023-06-10T04:28:55;99571.23;;;20.29;63.45
42003;BME280;27693;50.506;30.832;2023-06-10T04:29:58;99574.42;;;20.32;62.93
42003;BME280;27693;50.506;30.832;2023-06-10T04:31:01;99574.99;;;20.36;63.46
42003;BME280;27693;50.506;30.832;2023-06-10T04:32:07;99575.81;;;20.36;63.54
42003;BME280;27693;50.506;30.832;2023-06-10T04:33:09;99573.17;;;20.36;63.31
42003;BME280;27693;50.506;30.832;2023-06-10T04:34:13;99573.61;;;20.32;64.06
42003;BME280;27693;50.506;30.832;2023-06-10T04:35:16;99568.33;;;20.32;63.92
42003;BME280;27693;50.506;30.832;2023-06-10T04:36:20;99573.06;;;20.38;63.69
42003;BME280;27693;50.506;30.832;2023-06-10T04:37:22;99574.30;;;20.43;63.24
42003;BME280;27693;50.506;30.832;2023-06-10T04:38:25;99577.38;;;20.49;63.53
42003;BME280;27693;50.506;30.832;2023-06-10T04:39:27;99576.13;;;20.53;63.62
42003;BME280;27693;50.506;30.832;2023-06-10T04:40:30;99574.03;;;20.56;63.19
42003;BME280;27693;50.506;30.832;2023-06-10T04:41:33;99574.74;;;20.58;63.33
42003;BME280;27693;50.506;30.832;2023-06-10T04:42:36;99574.74;;;20.58;63.33
42003;BME280;27693;50.506;30.832;2023-06-10T04:43:39;99574.74;;;20.58;63.53
42003;BME280;27693;50.506;30.832;2023-06-10T04:44:41;99573.74;;;20.59;63.43
42003;BME280;27693;50.506;30.832;2023-06-10T04:45:43;99574.19;;;20.65;63.27
42003;BME280;27693;50.506;30.832;2023-06-10T04:46:47;99568.48;;;20.69;62.53
42003;BME280;27693;50.506;30.832;2023-06-10T04:47:50;99568.34;;;20.71;63.34
42003;BME280;27693;50.506;30.832;2023-06-10T04:48:52;99574.45;;;20.71;63.28
42003;BME280;27693;50.506;30.832;2023-06-10T04:49:56;99573.80;;;20.79;62.88
42003;BME280;27693;50.506;30.832;2023-06-10T04:50:59;99565.30;;;20.85;62.98
42003;BME280;27693;50.506;30.832;2023-06-10T04:52:03;99573.49;;;20.92;62.67
42003;BME280;27693;50.506;30.832;2023-06-10T04:53:08;99561.13;;;20.93;62.69
42003;BME280;27693;50.506;30.832;2023-06-10T04:54:12;99576.42;;;20.99;62.52
42003;BME280;27693;50.506;30.832;2023-06-10T04:55:14;99566.52;;;21.01;62.03
42003;BME280;27693;50.506;30.832;2023-06-10T04:56:17;99569.86;;;21.03;61.73
42003;BME280;27693;50.506;30.832;2023-06-10T04:57:21;99571.94;;;21.09;61.36
42003;BME280;27693;50.506;30.832;2023-06-10T04:58:23;99575.84;;;21.15;61.31
42003;BME280;27693;50.506;30.832;2023-06-10T04:59:26;99582.50;;;21.19;60.83
42003;BME280;27693;50.506;30.832;2023-06-10T05:00:28;99572.47;;;21.22;60.63
42003;BME280;27693;50.506;30.832;2023-06-10T05:01:31;99579.16;;;21.27;60.96
42003;BME280;27693;50.506;30.832;2023-06-10T05:02:33;99578.03;;;21.29;60.71
42003;BME280;27693;50.506;30.832;2023-06-10T05:03:38;99573.96;;;21.35;59.65
42003;BME280;27693;50.506;30.832;2023-06-10T05:04:41;99572.72;;;21.39;60.54
42003;BME280;27693;50.506;30.832;2023-06-10T05:05:44;99574.08;;;21.43;60.17
42003;BME280;27693;50.506;30.832;2023-06-10T05:06:50;99568.12;;;21.41;60.54
42003;BME280;27693;50.506;30.832;2023-06-10T05:07:52;99573.11;;;21.44;60.63
42003;BME280;27693;50.506;30.832;2023-06-10T05:08:55;99570.19;;;21.47;60.42
42003;BME280;27693;50.506;30.832;2023-06-10T05:09:57;99576.84;;;21.51;60.46
42003;BME280;27693;50.506;30.832;2023-06-10T05:10:59;99568.36;;;21.58;59.57
42003;BME280;27693;50.506;30.832;2023-06-10T05:12:04;99566.80;;;21.65;59.44
42003;BME280;27693;50.506;30.832;2023-06-10T05:13:06;99566.20;;;21.71;59.31
42003;BME280;27693;50.506;30.832;2023-06-10T05:14:08;99566.75;;;21.75;59.42
42003;BME280;27693;50.506;30.832;2023-06-10T05:15:11;99570.64;;;21.80;59.20
42003;BME280;27693;50.506;30.832;2023-06-10T05:16:14;99571.28;;;21.92;58.87
42003;BME280;27693;50.506;30.832;2023-06-10T05:17:17;99571.28;;;21.92;58.87
42003;BME280;27693;50.506;30.832;2023-06-10T05:18:19;99568.86;;;21.99;58.54
42003;BME280;27693;50.506;30.832;2023-06-10T05:19:23;99570.91;;;22.05;58.21
42003;BME280;27693;50.506;30.832;2023-06-10T05:20:25;99573.98;;;22.10;58.22
42003;BME280;27693;50.506;30.832;2023-06-10T05:21:28;99571.02;;;22.13;57.92
42003;BME280;27693;50.506;30.832;2023-06-10T05:22:31;99575.71;;;22.20;57.79
42003;BME280;27693;50.506;30.832;2023-06-10T05:23:34;99572.09;;;22.21;58.35
42003;BME280;27693;50.506;30.832;2023-06-10T05:24:37;99570.12;;;22.23;58.47
42003;BME280;27693;50.506;30.832;2023-06-10T05:25:40;99576.41;;;22.22;58.20
42003;BME280;27693;50.506;30.832;2023-06-10T05:26:43;99578.08;;;22.23;57.85
42003;BME280;27693;50.506;30.832;2023-06-10T05:27:46;99574.13;;;22.27;58.20
42003;BME280;27693;50.506;30.832;2023-06-10T05:28:48;99576.56;;;22.20;58.82
42003;BME280;27693;50.506;30.832;2023-06-10T05:29:50;99573.22;;;22.18;58.93
42003;BME280;27693;50.506;30.832;2023-06-10T05:30:55;99574.04;;;22.18;58.95
42003;BME280;27693;50.506;30.832;2023-06-10T05:31:58;99571.92;;;22.22;58.91
42003;BME280;27693;50.506;30.832;2023-06-10T05:33:03;99569.81;;;22.26;58.94
42003;BME280;27693;50.506;30.832;2023-06-10T05:34:06;99570.34;;;22.29;58.67